createdAt,value
2018-12-12T00:00:05.169Z,403.50
2018-12-12T00:01:05.176Z,404.00
2018-12-12T00:02:05.150Z,402.28
2018-12-12T00:03:05.124Z,402.16
2018-12-12T00:04:05.118Z,404.41
2018-12-12T00:05:05.152Z,402.43
2018-12-12T00:06:05.134Z,402.51
2018-12-12T00:07:05.103Z,403.82
2018-12-12T00:08:05.087Z,405.13
2018-12-12T00:09:05.048Z,403.73
2018-12-12T00:10:05.043Z,402.75
2018-12-12T00:11:05.069Z,402.96
2018-12-12T00:12:05.033Z,402.41
2018-12-12T00:13:05.004Z,403.54
2018-12-12T00:14:05.015Z,402.63
2018-12-12T00:15:04.993Z,402.55
2018-12-12T00:16:05.009Z,404.24
2018-12-12T00:17:05.022Z,403.15
2018-12-12T00:18:04.972Z,402.74
2018-12-12T00:19:04.977Z,402.71
2018-12-12T00:20:04.949Z,402.10
2018-12-12T00:21:04.924Z,402.81
2018-12-12T00:22:04.933Z,403.03
2018-12-12T00:23:04.919Z,401.37
2018-12-12T00:24:04.896Z,402.70
2018-12-12T00:25:04.925Z,401.29
2018-12-12T00:26:04.873Z,402.92
2018-12-12T00:27:04.886Z,402.75
2018-12-12T00:28:04.946Z,403.14
2018-12-12T00:29:04.859Z,402.36
2018-12-12T00:30:04.843Z,402.22
2018-12-12T00:31:04.842Z,401.97
2018-12-12T00:32:04.850Z,401.67
2018-12-12T00:33:04.955Z,401.97
2018-12-12T00:34:04.797Z,404.00
2018-12-12T00:35:04.790Z,402.43
2018-12-12T00:36:04.775Z,402.65
2018-12-12T00:37:04.784Z,403.32
2018-12-12T00:38:04.748Z,403.20
2018-12-12T00:39:04.735Z,404.17
2018-12-12T00:40:04.739Z,403.61
2018-12-12T00:41:04.714Z,402.13
2018-12-12T00:42:04.746Z,403.23
2018-12-12T00:43:04.688Z,401.87
2018-12-12T00:44:04.701Z,401.62
2018-12-12T00:45:04.664Z,402.72
2018-12-12T00:46:04.661Z,402.10
2018-12-12T00:47:04.656Z,402.81
2018-12-12T00:48:04.659Z,401.88
2018-12-12T00:49:04.628Z,402.49
2018-12-12T00:50:04.613Z,402.01
2018-12-12T00:51:04.607Z,403.42
2018-12-12T00:52:04.638Z,403.04
2018-12-12T00:53:04.595Z,402.84
2018-12-12T00:54:04.564Z,402.85
2018-12-12T00:55:04.549Z,403.88
2018-12-12T00:56:04.558Z,402.27
2018-12-12T00:57:04.541Z,403.37
2018-12-12T00:58:04.553Z,403.48
2018-12-12T00:59:04.527Z,402.62
2018-12-12T01:00:04.525Z,403.31
2018-12-12T01:01:04.496Z,403.75
2018-12-12T01:02:04.516Z,403.62
2018-12-12T01:03:04.475Z,404.13
2018-12-12T01:04:04.476Z,403.39
2018-12-12T01:05:04.833Z,402.95
2018-12-12T01:06:04.429Z,402.34
2018-12-12T01:07:04.425Z,404.17
2018-12-12T01:08:04.409Z,402.93
2018-12-12T01:09:04.414Z,403.10
2018-12-12T01:10:04.404Z,403.58
2018-12-12T01:11:04.459Z,403.49
2018-12-12T01:12:04.372Z,403.13
2018-12-12T01:13:04.363Z,402.46
2018-12-12T01:14:04.349Z,402.23
2018-12-12T01:15:04.580Z,403.49
2018-12-12T01:16:04.337Z,403.34
2018-12-12T01:17:04.346Z,403.46
2018-12-12T01:18:04.301Z,402.19
2018-12-12T01:19:04.309Z,403.00
2018-12-12T01:20:04.286Z,403.93
2018-12-12T01:21:04.303Z,402.51
2018-12-12T01:22:04.325Z,402.41
2018-12-12T01:23:04.272Z,404.50
2018-12-12T01:24:04.242Z,403.74
2018-12-12T01:25:04.246Z,403.30
2018-12-12T01:26:04.219Z,402.47
2018-12-12T01:27:04.228Z,403.32
2018-12-12T01:28:04.202Z,402.91
2018-12-12T01:29:04.223Z,402.84
2018-12-12T01:30:04.182Z,403.69
2018-12-12T01:31:04.162Z,402.37
2018-12-12T01:32:04.192Z,403.84
2018-12-12T01:33:04.172Z,402.58
2018-12-12T01:34:04.159Z,402.67
2018-12-12T01:35:04.122Z,403.23
2018-12-12T01:36:04.124Z,402.70
2018-12-12T01:37:04.094Z,403.80
2018-12-12T01:38:04.125Z,402.28
2018-12-12T01:39:04.106Z,403.11
2018-12-12T01:40:04.083Z,402.87
2018-12-12T01:41:04.059Z,403.47
2018-12-12T01:42:04.051Z,402.22
2018-12-12T01:43:04.039Z,402.37
2018-12-12T01:44:04.044Z,403.14
2018-12-12T01:45:04.045Z,402.63
2018-12-12T01:46:04.017Z,402.70
2018-12-12T01:47:03.995Z,403.13
2018-12-12T01:48:04.002Z,403.07
2018-12-12T01:49:04.020Z,402.54
2018-12-12T01:50:03.982Z,403.45
2018-12-12T01:51:03.983Z,403.14
2018-12-12T01:52:03.939Z,402.95
2018-12-12T01:53:03.927Z,402.34
2018-12-12T01:54:03.933Z,402.28
2018-12-12T01:55:03.927Z,403.29
2018-12-12T01:56:03.922Z,402.51
2018-12-12T01:57:03.897Z,403.04
2018-12-12T01:58:03.873Z,403.00
2018-12-12T01:59:03.862Z,404.22
2018-12-12T02:00:03.864Z,403.00
2018-12-12T02:01:03.914Z,403.07
2018-12-12T02:02:03.854Z,402.74
2018-12-12T02:03:03.829Z,403.37
2018-12-12T02:04:03.820Z,403.35
2018-12-12T02:05:03.801Z,402.23
2018-12-12T02:06:03.791Z,401.89
2018-12-12T02:07:04.202Z,402.09
2018-12-12T02:08:03.767Z,402.95
2018-12-12T02:09:03.746Z,403.02
2018-12-12T02:10:03.733Z,402.92
2018-12-12T02:11:03.733Z,403.75
2018-12-12T02:12:03.713Z,403.09
2018-12-12T02:13:03.754Z,402.98
2018-12-12T02:14:03.721Z,402.71
2018-12-12T02:15:03.703Z,403.17
2018-12-12T02:16:03.682Z,403.11
2018-12-12T02:17:03.661Z,403.81
2018-12-12T02:18:03.661Z,402.59
2018-12-12T02:19:03.678Z,403.66
2018-12-12T02:20:03.645Z,403.10
2018-12-12T02:21:03.631Z,403.00
2018-12-12T02:22:03.633Z,402.54
2018-12-12T02:23:03.628Z,402.67
2018-12-12T02:24:03.588Z,403.85
2018-12-12T02:25:03.607Z,403.05
2018-12-12T02:26:03.602Z,403.73
2018-12-12T02:27:04.067Z,403.61
2018-12-12T02:28:03.561Z,403.57
2018-12-12T02:29:03.602Z,405.03
2018-12-12T02:30:03.532Z,403.10
2018-12-12T02:31:03.533Z,403.03
2018-12-12T02:32:03.525Z,402.66
2018-12-12T02:33:03.519Z,402.50
2018-12-12T02:34:03.484Z,403.41
2018-12-12T02:35:03.484Z,403.53
2018-12-12T02:36:03.463Z,403.45
2018-12-12T02:37:03.477Z,404.04
2018-12-12T02:38:03.448Z,403.46
2018-12-12T02:39:03.437Z,402.37
2018-12-12T02:40:03.436Z,404.91
2018-12-12T02:41:03.440Z,402.65
2018-12-12T02:42:03.389Z,403.60
2018-12-12T02:43:03.384Z,404.09
2018-12-12T02:44:03.373Z,403.19
2018-12-12T02:45:03.392Z,403.94
2018-12-12T02:46:03.399Z,403.09
2018-12-12T02:47:03.355Z,403.76
2018-12-12T02:48:03.349Z,403.17
2018-12-12T02:49:03.311Z,403.42
2018-12-12T02:50:03.304Z,402.47
2018-12-12T02:51:03.304Z,403.06
2018-12-12T02:52:03.305Z,402.79
2018-12-12T02:53:03.275Z,404.12
2018-12-12T02:54:03.260Z,405.42
2018-12-12T02:55:03.251Z,402.97
2018-12-12T02:56:03.259Z,404.45
2018-12-12T02:57:03.231Z,404.59
2018-12-12T02:58:03.225Z,404.53
2018-12-12T02:59:03.221Z,406.63
2018-12-12T03:00:03.207Z,403.47
2018-12-12T03:01:03.208Z,403.95
2018-12-12T03:02:03.194Z,405.93
2018-12-12T03:03:03.168Z,404.21
2018-12-12T03:04:03.158Z,403.43
2018-12-12T03:05:03.154Z,405.11
2018-12-12T03:06:03.168Z,403.61
2018-12-12T03:07:03.122Z,404.57
2018-12-12T03:08:03.106Z,404.93
2018-12-12T03:09:03.103Z,405.29
2018-12-12T03:10:03.098Z,405.24
2018-12-12T03:11:03.085Z,402.78
2018-12-12T03:12:03.099Z,403.67
2018-12-12T03:13:03.047Z,404.08
2018-12-12T03:14:03.048Z,404.55
2018-12-12T03:15:03.034Z,403.98
2018-12-12T03:16:03.019Z,405.12
2018-12-12T03:17:03.028Z,404.93
2018-12-12T03:18:03.004Z,405.89
2018-12-12T03:19:03.004Z,403.88
2018-12-12T03:20:02.985Z,406.41
2018-12-12T03:21:02.963Z,404.05
2018-12-12T03:22:02.970Z,404.00
2018-12-12T03:23:02.957Z,404.11
2018-12-12T03:24:02.952Z,403.42
2018-12-12T03:25:02.940Z,405.70
2018-12-12T03:26:02.913Z,404.20
2018-12-12T03:27:02.926Z,403.85
2018-12-12T03:28:02.890Z,405.08
2018-12-12T03:29:02.886Z,404.55
2018-12-12T03:30:02.928Z,404.51
2018-12-12T03:31:02.871Z,404.47
2018-12-12T03:32:02.867Z,404.23
2018-12-12T03:33:02.863Z,406.23
2018-12-12T03:34:02.825Z,404.63
2018-12-12T03:35:02.808Z,404.86
2018-12-12T03:36:02.812Z,404.82
2018-12-12T03:37:02.828Z,405.60
2018-12-12T03:38:02.795Z,404.88
2018-12-12T03:39:02.769Z,405.71
2018-12-12T03:40:02.790Z,404.22
2018-12-12T03:41:02.751Z,404.14
2018-12-12T03:42:02.792Z,404.76
2018-12-12T03:43:02.729Z,404.75
2018-12-12T03:44:02.737Z,403.23
2018-12-12T03:45:02.702Z,406.99
2018-12-12T03:46:02.708Z,404.09
2018-12-12T03:47:02.715Z,404.16
2018-12-12T03:48:02.688Z,403.31
2018-12-12T03:49:02.697Z,403.35
2018-12-12T03:50:02.674Z,405.86
2018-12-12T03:51:02.651Z,404.78
2018-12-12T03:52:02.643Z,405.47
2018-12-12T03:53:02.617Z,404.52
2018-12-12T03:54:02.625Z,404.41
2018-12-12T03:55:02.637Z,404.53
2018-12-12T03:56:02.607Z,404.11
2018-12-12T03:57:02.576Z,404.67
2018-12-12T03:58:02.563Z,406.35
2018-12-12T03:59:02.563Z,404.22
2018-12-12T04:00:02.593Z,403.81
2018-12-12T04:01:02.554Z,403.75
2018-12-12T04:02:02.542Z,403.54
2018-12-12T04:03:02.517Z,404.36
2018-12-12T04:04:02.508Z,404.25
2018-12-12T04:05:02.500Z,404.65
2018-12-12T04:06:02.472Z,405.35
2018-12-12T04:07:02.465Z,404.95
2018-12-12T04:08:02.457Z,404.52
2018-12-12T04:09:02.459Z,405.08
2018-12-12T04:10:02.470Z,405.08
2018-12-12T04:11:02.436Z,405.92
2018-12-12T04:12:02.408Z,403.86
2018-12-12T04:13:02.424Z,403.67
2018-12-12T04:14:02.398Z,405.17
2018-12-12T04:15:02.448Z,404.23
2018-12-12T04:16:02.365Z,406.64
2018-12-12T04:17:02.371Z,406.04
2018-12-12T04:18:02.342Z,406.15
2018-12-12T04:19:02.326Z,404.07
2018-12-12T04:20:02.325Z,404.61
2018-12-12T04:21:02.381Z,404.53
2018-12-12T04:22:02.303Z,404.01
2018-12-12T04:23:02.310Z,406.65
2018-12-12T04:24:02.289Z,404.11
2018-12-12T04:25:02.368Z,406.13
2018-12-12T04:26:02.258Z,404.32
2018-12-12T04:27:02.276Z,403.86
2018-12-12T04:28:02.237Z,403.79
2018-12-12T04:29:02.223Z,403.79
2018-12-12T04:30:02.212Z,405.95
2018-12-12T04:31:02.223Z,405.28
2018-12-12T04:32:02.302Z,405.10
2018-12-12T04:33:02.202Z,404.94
2018-12-12T04:34:02.178Z,404.95
2018-12-12T04:35:02.199Z,404.70
2018-12-12T04:36:02.156Z,404.23
2018-12-12T04:37:02.132Z,405.60
2018-12-12T04:38:02.471Z,403.66
2018-12-12T04:39:02.108Z,404.37
2018-12-12T04:40:02.106Z,406.23
2018-12-12T04:41:02.112Z,404.84
2018-12-12T04:42:02.093Z,406.00
2018-12-12T04:43:02.103Z,404.97
2018-12-12T04:44:02.075Z,405.45
2018-12-12T04:45:02.051Z,404.63
2018-12-12T04:46:02.041Z,405.78
2018-12-12T04:47:02.098Z,405.92
2018-12-12T04:48:02.043Z,403.88
2018-12-12T04:49:02.015Z,405.79
2018-12-12T04:50:02.007Z,404.97
2018-12-12T04:51:01.988Z,404.00
2018-12-12T04:52:01.976Z,405.19
2018-12-12T04:53:02.639Z,404.37
2018-12-12T04:54:01.959Z,404.37
2018-12-12T04:55:01.954Z,404.56
2018-12-12T04:56:01.950Z,406.35
2018-12-12T04:57:01.927Z,405.60
2018-12-12T04:58:01.906Z,404.95
2018-12-12T04:59:01.908Z,406.87
2018-12-12T05:00:01.922Z,404.63
2018-12-12T05:01:01.872Z,404.90
2018-12-12T05:02:01.854Z,403.31
2018-12-12T05:03:01.862Z,404.43
2018-12-12T05:04:01.866Z,405.17
2018-12-12T05:05:01.839Z,404.66
2018-12-12T05:06:01.858Z,406.13
2018-12-12T05:07:01.826Z,403.82
2018-12-12T05:08:01.803Z,405.93
2018-12-12T05:09:01.799Z,404.38
2018-12-12T05:10:01.794Z,407.13
2018-12-12T05:11:01.786Z,403.59
2018-12-12T05:12:01.748Z,404.83
2018-12-12T05:13:01.758Z,404.97
2018-12-12T05:14:01.735Z,406.00
2018-12-12T05:15:01.725Z,404.26
2018-12-12T05:16:01.737Z,406.23
2018-12-12T05:17:01.710Z,404.01
2018-12-12T05:18:01.707Z,403.98
2018-12-12T05:19:01.693Z,404.43
2018-12-12T05:20:01.695Z,404.83
2018-12-12T05:21:01.676Z,404.58
2018-12-12T05:22:01.655Z,404.60
2018-12-12T05:23:01.635Z,406.20
2018-12-12T05:24:01.639Z,405.35
2018-12-12T05:25:01.628Z,405.79
2018-12-12T05:26:01.637Z,405.15
2018-12-12T05:27:01.595Z,404.85
2018-12-12T05:28:01.586Z,404.06
2018-12-12T05:29:01.560Z,405.16
2018-12-12T05:30:01.562Z,406.25
2018-12-12T05:31:01.581Z,404.97
2018-12-12T05:32:01.573Z,405.73
2018-12-12T05:33:01.561Z,405.60
2018-12-12T05:34:01.609Z,406.58
2018-12-12T05:35:01.528Z,406.15
2018-12-12T05:36:01.522Z,405.06
2018-12-12T05:37:01.498Z,404.38
2018-12-12T05:38:01.505Z,407.94
2018-12-12T05:39:01.457Z,405.81
2018-12-12T05:40:01.453Z,403.77
2018-12-12T05:41:01.458Z,405.15
2018-12-12T05:42:01.436Z,405.22
2018-12-12T05:43:01.472Z,405.29
2018-12-12T05:44:01.413Z,405.71
2018-12-12T05:45:01.405Z,406.59
2018-12-12T05:46:02.091Z,404.91
2018-12-12T05:47:01.370Z,404.12
2018-12-12T05:48:01.376Z,405.82
2018-12-12T05:49:01.411Z,405.35
2018-12-12T05:50:01.359Z,404.65
2018-12-12T05:51:01.343Z,406.09
2018-12-12T05:52:01.327Z,405.63
2018-12-12T05:53:01.302Z,405.35
2018-12-12T05:54:01.309Z,405.45
2018-12-12T05:55:01.317Z,405.12
2018-12-12T05:56:02.535Z,404.47
2018-12-12T05:57:01.303Z,406.09
2018-12-12T05:58:01.272Z,405.48
2018-12-12T05:59:01.246Z,404.86
2018-12-12T06:00:01.282Z,405.13
2018-12-12T06:01:01.224Z,406.67
2018-12-12T06:02:01.218Z,405.62
2018-12-12T06:03:01.203Z,404.35
2018-12-12T06:04:01.195Z,407.54
2018-12-12T06:05:01.180Z,404.73
2018-12-12T06:06:01.187Z,405.50
2018-12-12T06:07:01.167Z,405.28
2018-12-12T06:08:01.145Z,406.75
2018-12-12T06:09:01.143Z,406.05
2018-12-12T06:10:01.131Z,405.59
2018-12-12T06:11:01.124Z,405.27
2018-12-12T06:12:01.156Z,405.97
2018-12-12T06:13:01.093Z,406.75
2018-12-12T06:14:01.078Z,405.53
2018-12-12T06:15:01.069Z,405.87
2018-12-12T06:16:01.048Z,406.81
2018-12-12T06:17:01.055Z,407.87
2018-12-12T06:18:01.072Z,405.37
2018-12-12T06:19:01.031Z,405.76
2018-12-12T06:20:01.014Z,405.94
2018-12-12T06:21:01.008Z,406.65
2018-12-12T06:22:01.007Z,405.80
2018-12-12T06:23:01.024Z,405.97
2018-12-12T06:24:01.003Z,405.88
2018-12-12T06:25:00.965Z,406.57
2018-12-12T06:26:00.948Z,407.72
2018-12-12T06:27:00.938Z,406.82
2018-12-12T06:28:00.922Z,405.04
2018-12-12T06:29:00.935Z,405.72
2018-12-12T06:30:00.937Z,405.94
2018-12-12T06:31:00.909Z,406.32
2018-12-12T06:32:00.887Z,406.11
2018-12-12T06:33:00.888Z,406.28
2018-12-12T06:34:00.896Z,408.02
2018-12-12T06:35:00.880Z,406.42
2018-12-12T06:36:00.862Z,405.54
2018-12-12T06:37:00.841Z,404.57
2018-12-12T06:38:00.813Z,406.03
2018-12-12T06:39:00.826Z,406.09
2018-12-12T06:40:00.831Z,405.80
2018-12-12T06:41:00.810Z,407.05
2018-12-12T06:42:00.793Z,406.50
2018-12-12T06:43:00.784Z,406.68
2018-12-12T06:44:00.762Z,405.91
2018-12-12T06:45:01.367Z,406.61
2018-12-12T06:46:00.737Z,405.28
2018-12-12T06:47:00.720Z,406.00
2018-12-12T06:48:00.711Z,405.51
2018-12-12T06:49:00.721Z,405.51
2018-12-12T06:50:00.765Z,405.53
2018-12-12T06:51:00.672Z,405.59
2018-12-12T06:52:00.671Z,404.92
2018-12-12T06:53:00.661Z,404.50
2018-12-12T06:54:00.730Z,406.17
2018-12-12T06:55:00.664Z,406.77
2018-12-12T06:56:00.638Z,406.08
2018-12-12T06:57:00.617Z,405.83
2018-12-12T06:58:00.610Z,406.92
2018-12-12T06:59:00.602Z,406.86
2018-12-12T07:00:00.664Z,405.74
2018-12-12T07:01:00.581Z,406.99
2018-12-12T07:02:00.569Z,407.23
2018-12-12T07:03:00.559Z,407.99
2018-12-12T07:04:00.587Z,406.94
2018-12-12T07:05:00.546Z,406.56
2018-12-12T07:06:00.518Z,405.40
2018-12-12T07:07:00.513Z,405.48
2018-12-12T07:08:00.510Z,407.49
2018-12-12T07:09:00.495Z,406.77
2018-12-12T07:10:00.492Z,406.35
2018-12-12T07:11:00.466Z,406.17
2018-12-12T07:12:00.464Z,406.02
2018-12-12T07:13:00.449Z,406.64
2018-12-12T07:14:00.454Z,406.67
2018-12-12T07:15:00.439Z,406.34
2018-12-12T07:16:00.414Z,405.75
2018-12-12T07:17:00.420Z,407.26
2018-12-12T07:18:00.377Z,406.45
2018-12-12T07:19:00.368Z,407.86
2018-12-12T07:20:00.375Z,406.60
2018-12-12T07:21:00.367Z,406.66
2018-12-12T07:22:00.348Z,407.60
2018-12-12T07:23:00.365Z,405.61
2018-12-12T07:24:00.326Z,405.77
2018-12-12T07:25:00.335Z,407.46
2018-12-12T07:26:00.343Z,406.76
2018-12-12T07:27:00.305Z,405.67
2018-12-12T07:28:00.290Z,406.49
2018-12-12T07:29:00.258Z,406.82
2018-12-12T07:30:00.287Z,406.37
2018-12-12T07:31:00.250Z,406.28
2018-12-12T07:32:00.241Z,406.88
2018-12-12T07:33:00.232Z,406.16
2018-12-12T07:34:01.110Z,406.89
2018-12-12T07:35:00.222Z,406.05
2018-12-12T07:36:00.195Z,406.18
2018-12-12T07:37:00.201Z,406.41
2018-12-12T07:38:00.159Z,405.63
2018-12-12T07:39:00.200Z,406.90
2018-12-12T07:40:00.179Z,406.39
2018-12-12T07:41:00.131Z,406.67
2018-12-12T07:42:00.134Z,406.35
2018-12-12T07:43:00.129Z,406.91
2018-12-12T07:44:00.103Z,405.64
2018-12-12T07:45:00.129Z,406.79
2018-12-12T07:46:00.110Z,406.21
2018-12-12T07:47:00.166Z,405.31
2018-12-12T07:48:01.561Z,406.17
2018-12-12T07:49:00.055Z,407.31
2018-12-12T07:50:00.044Z,406.42
2018-12-12T07:51:00.056Z,405.25
2018-12-12T07:52:00.031Z,407.71
2018-12-12T07:53:00.010Z,406.63
2018-12-12T07:54:00.008Z,406.75
2018-12-12T07:54:59.981Z,406.66
2018-12-12T07:56:00.003Z,405.67
2018-12-12T07:57:00.014Z,406.01
2018-12-12T07:57:59.965Z,406.70
2018-12-12T07:58:59.952Z,406.77
2018-12-12T07:59:59.935Z,406.73
2018-12-12T08:00:59.910Z,405.82
2018-12-12T08:01:59.916Z,406.03
2018-12-12T08:03:05.379Z,406.48
2018-12-12T08:04:00.953Z,406.19
2018-12-12T08:04:59.910Z,407.28
2018-12-12T08:05:59.907Z,406.93
2018-12-12T08:06:59.881Z,407.48
2018-12-12T08:07:59.879Z,406.47
2018-12-12T08:08:59.832Z,406.92
2018-12-12T08:09:59.844Z,405.34
2018-12-12T08:10:59.817Z,407.13
2018-12-12T08:11:59.810Z,408.41
2018-12-12T08:12:59.784Z,408.28
2018-12-12T08:13:59.795Z,405.68
2018-12-12T08:14:59.807Z,406.85
2018-12-12T08:15:59.776Z,407.25
2018-12-12T08:16:59.782Z,409.08
2018-12-12T08:17:59.739Z,407.06
2018-12-12T08:18:59.749Z,406.99
2018-12-12T08:19:59.721Z,406.22
2018-12-12T08:20:59.728Z,406.46
2018-12-12T08:21:59.718Z,405.78
2018-12-12T08:22:59.686Z,407.27
2018-12-12T08:23:59.668Z,407.24
2018-12-12T08:24:59.709Z,406.78
2018-12-12T08:25:59.679Z,405.95
2018-12-12T08:26:59.655Z,406.24
2018-12-12T08:27:59.627Z,407.21
2018-12-12T08:28:59.622Z,406.70
2018-12-12T08:29:59.609Z,407.17
2018-12-12T08:30:59.637Z,406.47
2018-12-12T08:31:59.583Z,408.01
2018-12-12T08:32:59.566Z,406.49
2018-12-12T08:33:59.548Z,405.72
2018-12-12T08:34:59.547Z,406.86
2018-12-12T08:35:59.529Z,407.08
2018-12-12T08:36:59.571Z,406.56
2018-12-12T08:37:59.519Z,408.97
2018-12-12T08:38:59.516Z,406.64
2018-12-12T08:39:59.525Z,407.54
2018-12-12T08:40:59.485Z,406.95
2018-12-12T08:41:59.474Z,406.65
2018-12-12T08:42:59.485Z,406.78
2018-12-12T08:43:59.461Z,406.19
2018-12-12T08:44:59.454Z,405.57
2018-12-12T08:45:59.443Z,407.13
2018-12-12T08:46:59.430Z,406.37
2018-12-12T08:47:59.429Z,406.78
2018-12-12T08:48:59.423Z,406.79
2018-12-12T08:49:59.397Z,408.01
2018-12-12T08:50:59.399Z,407.50
2018-12-12T08:51:59.365Z,406.17
2018-12-12T08:52:59.343Z,406.72
2018-12-12T08:53:59.364Z,408.87
2018-12-12T08:54:59.353Z,406.88
2018-12-12T08:55:59.328Z,406.27
2018-12-12T08:56:59.306Z,407.50
2018-12-12T08:57:59.341Z,406.86
2018-12-12T08:58:59.296Z,405.41
2018-12-12T08:59:59.292Z,406.60
2018-12-12T09:00:59.273Z,407.93
2018-12-12T09:01:59.274Z,407.08
2018-12-12T09:02:59.243Z,407.06
2018-12-12T09:03:59.254Z,406.55
2018-12-12T09:04:59.260Z,406.34
2018-12-12T09:05:59.200Z,405.77
2018-12-12T09:06:59.224Z,406.57
2018-12-12T09:07:59.198Z,407.01
2018-12-12T09:08:59.219Z,405.63
2018-12-12T09:09:59.179Z,405.37
2018-12-12T09:10:59.165Z,406.04
2018-12-12T09:11:59.171Z,405.82
2018-12-12T09:12:59.140Z,407.62
2018-12-12T09:13:59.136Z,406.38
2018-12-12T09:14:59.159Z,407.50
2018-12-12T09:15:59.107Z,406.77
2018-12-12T09:16:59.112Z,406.53
2018-12-12T09:17:59.095Z,408.20
2018-12-12T09:18:59.611Z,406.49
2018-12-12T09:19:59.085Z,407.46
2018-12-12T09:20:59.044Z,405.77
2018-12-12T09:21:59.051Z,406.84
2018-12-12T09:22:59.035Z,408.28
2018-12-12T09:23:59.013Z,406.66
2018-12-12T09:24:59.054Z,406.60
2018-12-12T09:25:59.629Z,406.58
2018-12-12T09:26:58.976Z,405.92
2018-12-12T09:27:58.963Z,406.47
2018-12-12T09:28:58.974Z,406.56
2018-12-12T09:29:58.980Z,406.89
2018-12-12T09:30:58.943Z,406.75
2018-12-12T09:31:58.928Z,406.27
2018-12-12T09:32:58.919Z,406.37
2018-12-12T09:33:58.909Z,405.51
2018-12-12T09:34:58.920Z,406.03
2018-12-12T09:35:58.886Z,406.54
2018-12-12T09:36:58.877Z,406.37
2018-12-12T09:37:58.883Z,408.21
2018-12-12T09:38:58.844Z,407.94
2018-12-12T09:39:58.833Z,405.23
2018-12-12T09:40:58.844Z,408.27
2018-12-12T09:41:58.822Z,405.38
2018-12-12T09:42:58.858Z,406.87
2018-12-12T09:43:58.795Z,404.80
2018-12-12T09:44:58.778Z,406.15
2018-12-12T09:45:58.842Z,405.49
2018-12-12T09:46:58.785Z,406.10
2018-12-12T09:47:58.763Z,405.65
2018-12-12T09:48:58.759Z,407.37
2018-12-12T09:49:58.771Z,405.69
2018-12-12T09:50:58.718Z,406.98
2018-12-12T09:51:58.713Z,406.85
2018-12-12T09:52:58.724Z,408.11
2018-12-12T09:53:58.743Z,407.65
2018-12-12T09:54:58.707Z,406.12
2018-12-12T09:55:58.666Z,406.58
2018-12-12T09:56:58.650Z,406.23
2018-12-12T09:57:58.648Z,407.31
2018-12-12T09:58:58.625Z,406.47
2018-12-12T09:59:58.658Z,407.08
2018-12-12T10:00:58.608Z,407.53
2018-12-12T10:01:58.611Z,406.62
2018-12-12T10:02:58.585Z,407.37
2018-12-12T10:03:58.592Z,407.15
2018-12-12T10:04:58.567Z,407.04
2018-12-12T10:05:58.608Z,406.68
2018-12-12T10:06:58.546Z,406.11
2018-12-12T10:07:58.555Z,406.94
2018-12-12T10:08:58.523Z,406.20
2018-12-12T10:09:58.530Z,406.44
2018-12-12T10:10:58.529Z,407.52
2018-12-12T10:11:58.509Z,406.73
2018-12-12T10:12:58.485Z,407.70
2018-12-12T10:13:58.483Z,406.11
2018-12-12T10:14:58.461Z,407.73
2018-12-12T10:15:58.470Z,407.73
2018-12-12T10:16:58.467Z,406.25
2018-12-12T10:17:58.420Z,406.42
2018-12-12T10:18:58.420Z,406.18
2018-12-12T10:19:58.404Z,406.20
2018-12-12T10:20:58.504Z,406.43
2018-12-12T10:21:58.394Z,407.65
2018-12-12T10:22:58.379Z,407.23
2018-12-12T10:23:58.390Z,406.98
2018-12-12T10:24:58.364Z,407.14
2018-12-12T10:25:58.340Z,406.86
2018-12-12T10:26:58.349Z,407.73
2018-12-12T10:27:58.324Z,406.10
2018-12-12T10:28:58.314Z,406.68
2018-12-12T10:29:58.323Z,406.90
2018-12-12T10:30:58.273Z,406.40
2018-12-12T10:31:58.267Z,407.30
2018-12-12T10:32:58.270Z,407.13
2018-12-12T10:33:58.252Z,405.18
2018-12-12T10:34:58.245Z,405.77
2018-12-12T10:35:58.260Z,406.60
2018-12-12T10:36:58.223Z,407.58
2018-12-12T10:37:58.213Z,407.68
2018-12-12T10:38:58.251Z,406.61
2018-12-12T10:39:58.209Z,407.07
2018-12-12T10:40:58.181Z,406.83
2018-12-12T10:41:58.160Z,407.18
2018-12-12T10:42:58.239Z,405.88
2018-12-12T10:43:58.140Z,405.55
2018-12-12T10:44:58.166Z,408.21
2018-12-12T10:45:58.153Z,405.25
2018-12-12T10:46:58.131Z,407.11
2018-12-12T10:47:58.105Z,407.79
2018-12-12T10:48:58.084Z,405.05
2018-12-12T10:49:58.069Z,405.83
2018-12-12T10:50:58.095Z,406.62
2018-12-12T10:51:58.056Z,406.94
2018-12-12T10:52:58.040Z,405.82
2018-12-12T10:53:58.021Z,406.48
2018-12-12T10:54:58.027Z,407.25
2018-12-12T10:55:58.031Z,407.21
2018-12-12T10:56:58.033Z,406.69
2018-12-12T10:57:58.010Z,406.37
2018-12-12T10:58:57.990Z,407.00
2018-12-12T10:59:57.975Z,407.44
2018-12-12T11:00:57.975Z,407.90
2018-12-12T11:01:57.959Z,407.72
2018-12-12T11:02:57.970Z,406.70
2018-12-12T11:03:57.915Z,406.66
2018-12-12T11:04:57.919Z,407.08
2018-12-12T11:05:57.913Z,407.26
2018-12-12T11:06:57.881Z,404.68
2018-12-12T11:07:57.888Z,408.15
2018-12-12T11:08:57.901Z,407.57
2018-12-12T11:09:57.871Z,406.46
2018-12-12T11:10:57.853Z,407.32
2018-12-12T11:11:57.835Z,406.19
2018-12-12T11:12:57.858Z,407.51
2018-12-12T11:13:57.814Z,405.31
2018-12-12T11:14:57.810Z,406.63
2018-12-12T11:15:57.783Z,406.43
2018-12-12T11:16:57.781Z,406.92
2018-12-12T11:17:57.767Z,407.08
2018-12-12T11:18:57.799Z,407.03
2018-12-12T11:19:57.764Z,407.27
2018-12-12T11:20:57.749Z,409.76
2018-12-12T11:21:57.730Z,407.91
2018-12-12T11:22:57.722Z,406.26
2018-12-12T11:23:57.718Z,407.14
2018-12-12T11:24:57.728Z,409.12
2018-12-12T11:25:57.703Z,409.42
2018-12-12T11:26:57.662Z,407.77
2018-12-12T11:27:57.660Z,406.97
2018-12-12T11:28:57.650Z,407.47
2018-12-12T11:29:57.639Z,407.01
2018-12-12T11:30:57.644Z,408.01
2018-12-12T11:31:57.640Z,407.70
2018-12-12T11:32:57.606Z,406.67
2018-12-12T11:33:57.595Z,408.50
2018-12-12T11:34:57.582Z,407.48
2018-12-12T11:35:57.599Z,405.91
2018-12-12T11:36:57.570Z,407.50
2018-12-12T11:37:57.554Z,405.81
2018-12-12T11:38:57.552Z,405.94
2018-12-12T11:39:57.522Z,406.77
2018-12-12T11:40:57.527Z,405.70
2018-12-12T11:41:57.547Z,406.56
2018-12-12T11:42:57.503Z,408.17
2018-12-12T11:43:57.488Z,407.11
2018-12-12T11:44:57.465Z,406.32
2018-12-12T11:45:57.456Z,406.73
2018-12-12T11:46:58.057Z,406.73
2018-12-12T11:47:57.519Z,406.15
2018-12-12T11:48:57.435Z,407.31
2018-12-12T11:49:57.425Z,405.64
2018-12-12T11:50:57.409Z,407.62
2018-12-12T11:51:57.395Z,407.60
2018-12-12T11:52:57.391Z,406.50
2018-12-12T11:53:57.396Z,406.42
2018-12-12T11:54:57.362Z,407.42
2018-12-12T11:55:57.358Z,407.23
2018-12-12T11:56:57.375Z,406.73
2018-12-12T11:57:57.336Z,406.87
2018-12-12T11:58:57.360Z,405.89
2018-12-12T11:59:57.319Z,406.63
2018-12-12T12:00:57.296Z,405.58
2018-12-12T12:01:57.301Z,407.77
2018-12-12T12:02:57.286Z,408.04
2018-12-12T12:03:57.300Z,409.60
2018-12-12T12:04:57.290Z,406.83
2018-12-12T12:05:57.258Z,406.51
2018-12-12T12:06:57.238Z,406.56
2018-12-12T12:07:57.228Z,406.44
2018-12-12T12:08:57.216Z,407.71
2018-12-12T12:09:57.216Z,406.92
2018-12-12T12:10:57.201Z,407.13
2018-12-12T12:11:57.191Z,407.61
2018-12-12T12:12:57.172Z,407.68
2018-12-12T12:13:57.153Z,407.01
2018-12-12T12:14:57.142Z,406.33
2018-12-12T12:15:57.153Z,408.91
2018-12-12T12:16:57.137Z,406.47
2018-12-12T12:17:57.128Z,405.30
2018-12-12T12:18:57.118Z,407.17
2018-12-12T12:19:57.090Z,405.89
2018-12-12T12:20:57.098Z,408.06
2018-12-12T12:21:57.087Z,407.29
2018-12-12T12:22:57.065Z,406.73
2018-12-12T12:23:57.042Z,406.21
2018-12-12T12:24:57.055Z,406.92
2018-12-12T12:25:57.056Z,406.97
2018-12-12T12:26:57.014Z,406.13
2018-12-12T12:27:57.016Z,405.55